This is the latest recevied weather packets stored in our database for station/object IW1CBG-3. If no packets are shown the sender has not sent any weather packets the latest 10 day(s).
| Time | Temp. | Humidity | Pressure | Rain* | Wind** | Luminosity | Snow |
|---|---|---|---|---|---|---|---|
| 1777227033 | 13.89° C | 86% | 1028.8 hPa | 0 mm | - | - | - |
| 1777226434 | 13.89° C | 85% | 1028.7 hPa | 0 mm | - | - | - |
| 1777225835 | 14.44° C | 85% | 1028.6 hPa | 0 mm | - | - | - |
| 1777225234 | 15° C | 84% | 1028.4 hPa | 0 mm | - | - | - |
| 1777224634 | 15° C | 82% | 1028.7 hPa | 0 mm | - | - | - |
| 1777224033 | 15° C | 81% | 1028.2 hPa | 0 mm | - | - | - |
| 1777223434 | 15° C | 81% | 1028.2 hPa | 0 mm | - | - | - |
| 1777222834 | 15° C | 81% | 1028.2 hPa | 0 mm | - | - | - |
| 1777222234 | 15.56° C | 80% | 1028.3 hPa | 0 mm | - | - | - |
| 1777221634 | 15.56° C | 78% | 1027.9 hPa | 0 mm | - | - | - |
| 1777221034 | 16.11° C | 76% | 1028 hPa | 0 mm | - | - | - |
| 1777220433 | 17.22° C | 72% | 1027.5 hPa | 0 mm | - | - | - |
| 1777219833 | 17.22° C | 70% | 1027.5 hPa | 0 mm | - | - | - |
| 1777219233 | 16.11° C | 76% | 1027.9 hPa | 0 mm | - | - | - |
| 1777218633 | 16.67° C | 75% | 1027.8 hPa | 0 mm | - | - | - |
| 1777218033 | 16.67° C | 73% | 1027.8 hPa | 0 mm | - | - | - |
| 1777217433 | 16.11° C | 75% | 1028.2 hPa | 0 mm | - | - | - |
| 1777216833 | 16.67° C | 76% | 1027.5 hPa | 0 mm | - | - | - |
| 1777216233 | 16.67° C | 75% | 1027.3 hPa | 0 mm | - | - | - |
| 1777215634 | 17.22° C | 74% | 1027.4 hPa | 0 mm | - | - | - |
| 1777215035 | 17.78° C | 73% | 1027.5 hPa | 0 mm | - | - | - |
| 1777214434 | 17.22° C | 75% | 1027.7 hPa | 0 mm | - | - | - |
| 1777213835 | 16.67° C | 76% | 1027.9 hPa | 0 mm | - | - | - |
| 1777213234 | 16.67° C | 77% | 1027.8 hPa | 0 mm | - | - | - |
| 1777212634 | 17.22° C | 75% | 1027.8 hPa | 0 mm | - | - | - |
* Rain latest hour (hover to see other rain measurements)
** Current wind speed in m/s (hover to see current wind gust speed)